createdAt,value
2022-07-31T00:02:57.741Z,97471.31
2022-07-31T00:12:16.936Z,97469.31
2022-07-31T00:15:40.663Z,97467.83
2022-07-31T00:28:22.447Z,97468.38
2022-07-31T00:31:09.266Z,97469.77
2022-07-31T00:33:38.343Z,97468.96
2022-07-31T00:36:07.857Z,97467.59
2022-07-31T00:39:14.157Z,97466.01
2022-07-31T00:41:45.495Z,97463.09
2022-07-31T00:44:52.352Z,97460.61
2022-07-31T00:47:39.730Z,97458.71
2022-07-31T00:50:27.765Z,97458.42
2022-07-31T00:53:15.142Z,97458.33
2022-07-31T00:56:02.869Z,97453.88
2022-07-31T00:59:08.658Z,97453.66
2022-07-31T01:04:26.007Z,97449.66
2022-07-31T01:07:13.904Z,97448.11
2022-07-31T01:13:23.254Z,97449.08
2022-07-31T01:16:13.826Z,97447.40
2022-07-31T01:19:05.010Z,97447.30
2022-07-31T01:25:08.338Z,97439.71
2022-07-31T01:28:20.846Z,97439.23
2022-07-31T01:31:30.064Z,97436.05
2022-07-31T01:34:07.736Z,97435.38
2022-07-31T01:37:12.721Z,97433.41
2022-07-31T01:39:50.530Z,97437.83
2022-07-31T01:43:32.588Z,97438.25
2022-07-31T01:46:41.499Z,97433.73
2022-07-31T01:49:48.476Z,97433.98
2022-07-31T01:55:26.685Z,97439.21
2022-07-31T01:58:15.222Z,97442.58
2022-07-31T02:01:03.663Z,97444.30
2022-07-31T02:06:40.414Z,97445.58
2022-07-31T02:09:28.717Z,97444.77
2022-07-31T02:12:17.075Z,97444.30
2022-07-31T02:15:38.930Z,97440.90
2022-07-31T02:18:28.346Z,97440.85
2022-07-31T02:21:28.302Z,97444.44
2022-07-31T02:24:34.157Z,97449.62
2022-07-31T02:27:59.168Z,97448.08
2022-07-31T02:30:48.762Z,97448.81
2022-07-31T02:34:12.493Z,97445.71
2022-07-31T02:37:00.137Z,97448.23
2022-07-31T02:43:16.377Z,97449.61
2022-07-31T02:51:58.873Z,97448.00
2022-07-31T02:54:46.160Z,97450.13
2022-07-31T02:57:52.866Z,97441.14
2022-07-31T03:00:26.797Z,97439.48
2022-07-31T03:03:14.702Z,97437.05
2022-07-31T03:06:20.291Z,97434.48
2022-07-31T03:08:49.211Z,97439.27
2022-07-31T03:11:39.455Z,97441.34
2022-07-31T03:18:27.909Z,97444.61
2022-07-31T03:21:32.797Z,97442.27
2022-07-31T03:24:57.293Z,97448.19
2022-07-31T03:27:46.548Z,97448.65
2022-07-31T03:31:00.922Z,97449.80
2022-07-31T03:33:31.470Z,97447.60
2022-07-31T03:36:00.545Z,97447.42
2022-07-31T03:45:26.542Z,97436.58
2022-07-31T03:48:32.217Z,97429.06
2022-07-31T03:51:38.317Z,97432.90
2022-07-31T04:00:28.510Z,97438.34
2022-07-31T04:03:35.309Z,97441.10
2022-07-31T04:09:46.053Z,97442.19
2022-07-31T04:15:22.330Z,97446.70
2022-07-31T04:18:12.626Z,97449.61
2022-07-31T04:21:37.592Z,97450.52
2022-07-31T04:24:26.314Z,97454.78
2022-07-31T04:27:48.285Z,97456.38
2022-07-31T04:30:37.809Z,97455.48
2022-07-31T04:33:25.350Z,97459.17
2022-07-31T04:35:56.469Z,97458.30
2022-07-31T04:38:25.526Z,97454.55
2022-07-31T04:41:34.026Z,97452.55
2022-07-31T04:44:03.010Z,97456.53
2022-07-31T04:49:44.113Z,97449.20
2022-07-31T04:52:34.601Z,97448.83
2022-07-31T05:02:18.263Z,97441.21
2022-07-31T05:05:07.731Z,97444.20
2022-07-31T05:07:44.770Z,97444.67
2022-07-31T05:17:03.791Z,97449.70
2022-07-31T05:20:10.823Z,97449.96
2022-07-31T05:23:00.221Z,97449.02
2022-07-31T05:29:03.283Z,97447.01
2022-07-31T05:31:32.490Z,97445.94
2022-07-31T05:34:55.619Z,97440.85
2022-07-31T05:40:51.217Z,97452.71
2022-07-31T05:56:35.605Z,97459.42
2022-07-31T05:59:59.349Z,97457.91
2022-07-31T06:02:47.354Z,97465.73
2022-07-31T06:12:42.686Z,97467.31
2022-07-31T06:15:49.668Z,97468.37
2022-07-31T06:18:55.849Z,97469.71
2022-07-31T06:24:51.046Z,97467.69
2022-07-31T06:27:41.603Z,97471.90
2022-07-31T06:31:06.629Z,97477.95
2022-07-31T06:33:37.483Z,97484.00
2022-07-31T06:36:24.880Z,97480.00
2022-07-31T06:40:07.298Z,97478.50
2022-07-31T06:43:16.305Z,97475.03
2022-07-31T06:59:40.017Z,97473.01
2022-07-31T07:02:46.450Z,97477.06
2022-07-31T07:05:53.579Z,97477.16
2022-07-31T07:15:33.262Z,97479.65
2022-07-31T07:22:10.108Z,97473.08
2022-07-31T07:25:16.691Z,97469.84
2022-07-31T07:28:30.641Z,97473.70
2022-07-31T07:31:59.555Z,97473.26
2022-07-31T07:38:54.829Z,97469.07
2022-07-31T07:42:02.049Z,97472.30
2022-07-31T07:44:50.343Z,97476.09
2022-07-31T07:48:07.068Z,97474.35
2022-07-31T07:50:57.427Z,97473.79
2022-07-31T08:03:56.971Z,97470.77
2022-07-31T08:06:26.585Z,97466.64
2022-07-31T08:09:13.817Z,97469.96
2022-07-31T08:12:45.445Z,97471.10
2022-07-31T08:18:39.709Z,97472.58
2022-07-31T08:27:39.746Z,97477.05
2022-07-31T08:33:35.152Z,97470.71
2022-07-31T08:36:26.509Z,97469.62
2022-07-31T08:42:45.198Z,97469.35
2022-07-31T08:45:51.315Z,97469.73
2022-07-31T08:48:48.487Z,97470.70
2022-07-31T08:51:51.565Z,97469.81
2022-07-31T08:55:01.093Z,97471.38
2022-07-31T08:58:06.025Z,97469.61
2022-07-31T09:01:11.978Z,97477.85
2022-07-31T09:04:18.722Z,97474.42
2022-07-31T09:07:10.014Z,97473.27
2022-07-31T09:10:16.727Z,97466.35
2022-07-31T09:13:03.810Z,97468.44
2022-07-31T09:16:09.263Z,97468.50
2022-07-31T09:18:38.655Z,97466.90
2022-07-31T09:21:10.329Z,97473.15
2022-07-31T09:31:10.658Z,97466.54
2022-07-31T09:36:53.912Z,97465.29
2022-07-31T09:39:59.835Z,97462.41
2022-07-31T09:43:09.578Z,97466.70
2022-07-31T09:46:17.701Z,97465.75
2022-07-31T09:49:05.716Z,97458.69
2022-07-31T09:51:54.553Z,97456.88
2022-07-31T09:55:00.577Z,97458.39
2022-07-31T09:58:11.387Z,97457.98
2022-07-31T10:01:00.288Z,97447.77
2022-07-31T10:04:07.459Z,97443.77
2022-07-31T10:07:24.461Z,97444.20
2022-07-31T10:10:58.465Z,97439.64
2022-07-31T10:20:35.741Z,97433.92
2022-07-31T10:23:47.264Z,97433.65
2022-07-31T10:26:59.254Z,97434.48
2022-07-31T10:32:50.507Z,97430.20
2022-07-31T10:39:01.564Z,97433.35
2022-07-31T10:42:11.979Z,97427.44
2022-07-31T10:51:55.383Z,97424.98
2022-07-31T11:01:26.228Z,97419.44
2022-07-31T11:07:19.559Z,97412.38
2022-07-31T11:10:49.993Z,97406.11
2022-07-31T11:14:05.135Z,97403.36
2022-07-31T11:17:09.678Z,97405.92
2022-07-31T11:19:57.609Z,97405.40
2022-07-31T11:22:53.998Z,97401.23
2022-07-31T11:25:59.853Z,97394.12
2022-07-31T11:28:46.796Z,97398.69
2022-07-31T11:31:34.178Z,97393.70
2022-07-31T11:34:04.395Z,97393.25
2022-07-31T11:36:36.637Z,97393.41
2022-07-31T11:40:01.692Z,97378.31
2022-07-31T11:43:27.537Z,97380.36
2022-07-31T11:45:57.109Z,97374.33
2022-07-31T11:48:47.157Z,97372.74
2022-07-31T11:51:37.923Z,97372.60
2022-07-31T11:54:26.098Z,97377.79
2022-07-31T11:56:56.035Z,97371.84
2022-07-31T11:59:45.620Z,97370.30
2022-07-31T12:02:18.007Z,97373.50
2022-07-31T12:08:34.938Z,97375.63
2022-07-31T12:11:40.460Z,97370.48
2022-07-31T12:14:27.770Z,97366.70
2022-07-31T12:20:35.321Z,97354.29
2022-07-31T12:23:40.733Z,97350.42
2022-07-31T12:26:28.466Z,97351.52
2022-07-31T12:29:35.799Z,97351.42
2022-07-31T12:32:24.640Z,97345.14
2022-07-31T12:35:11.866Z,97337.16
2022-07-31T12:37:59.353Z,97337.33
2022-07-31T12:46:58.462Z,97332.10
2022-07-31T12:49:27.288Z,97329.29
2022-07-31T12:55:38.744Z,97328.32
2022-07-31T13:01:32.285Z,97331.99
2022-07-31T13:11:46.314Z,97311.14
2022-07-31T13:23:56.115Z,97304.30
2022-07-31T13:29:49.285Z,97297.27
2022-07-31T13:32:18.123Z,97299.52
2022-07-31T13:35:24.283Z,97294.73
2022-07-31T13:41:17.774Z,97293.40
2022-07-31T13:44:00.482Z,97284.98
2022-07-31T13:46:48.647Z,97280.27
2022-07-31T13:49:36.356Z,97275.91
2022-07-31T13:52:06.965Z,97277.95
2022-07-31T13:54:54.883Z,97272.09
2022-07-31T13:57:43.362Z,97270.83
2022-07-31T14:03:55.112Z,97274.09
2022-07-31T14:06:42.460Z,97274.71
2022-07-31T14:09:14.624Z,97272.96
2022-07-31T14:12:04.689Z,97266.69
2022-07-31T14:17:58.161Z,97264.82
2022-07-31T14:20:45.090Z,97258.32
2022-07-31T14:27:15.424Z,97250.44
2022-07-31T14:30:45.640Z,97245.78
2022-07-31T14:33:15.519Z,97243.07
2022-07-31T14:35:54.665Z,97246.73
2022-07-31T14:38:42.030Z,97246.46
2022-07-31T14:41:29.167Z,97250.38
2022-07-31T14:44:20.921Z,97244.48
2022-07-31T14:53:40.994Z,97236.15
2022-07-31T14:57:02.954Z,97230.64
2022-07-31T15:00:10.083Z,97236.92
2022-07-31T15:03:00.324Z,97238.28
2022-07-31T15:06:40.847Z,97233.90
2022-07-31T15:12:01.872Z,97227.42
2022-07-31T15:14:49.713Z,97230.89
2022-07-31T15:17:38.869Z,97227.23
2022-07-31T15:20:44.910Z,97223.63
2022-07-31T15:23:50.475Z,97221.23
2022-07-31T15:27:14.113Z,97216.61
2022-07-31T15:32:33.427Z,97213.56
2022-07-31T15:35:39.151Z,97205.14
2022-07-31T15:38:08.171Z,97212.43
2022-07-31T15:40:55.388Z,97210.55
2022-07-31T15:47:25.302Z,97210.20
2022-07-31T15:49:53.042Z,97212.98
2022-07-31T15:52:42.242Z,97209.52
2022-07-31T15:58:34.774Z,97207.27
2022-07-31T16:01:59.324Z,97210.27
2022-07-31T16:04:52.921Z,97205.81
2022-07-31T16:08:29.030Z,97206.77
2022-07-31T16:10:54.129Z,97201.98
2022-07-31T16:13:59.827Z,97200.84
2022-07-31T16:16:47.041Z,97192.54
2022-07-31T16:19:57.756Z,97191.78
2022-07-31T16:22:26.541Z,97191.23
2022-07-31T16:25:13.373Z,97188.12
2022-07-31T16:28:37.949Z,97190.18
2022-07-31T16:31:30.641Z,97184.46
2022-07-31T16:34:39.716Z,97181.94
2022-07-31T16:40:33.026Z,97183.08
2022-07-31T16:43:47.992Z,97182.78
2022-07-31T16:46:49.240Z,97180.73
2022-07-31T16:49:59.205Z,97188.40
2022-07-31T16:52:51.314Z,97182.38
2022-07-31T16:56:00.487Z,97177.84
2022-07-31T16:58:54.363Z,97179.40
2022-07-31T17:01:59.502Z,97186.71
2022-07-31T17:04:30.953Z,97185.36
2022-07-31T17:07:17.907Z,97186.20
2022-07-31T17:10:07.864Z,97188.33
2022-07-31T17:13:32.127Z,97189.02
2022-07-31T17:16:38.096Z,97192.85
2022-07-31T17:20:01.564Z,97193.11
2022-07-31T17:22:54.135Z,97192.65
2022-07-31T17:25:42.690Z,97193.86
2022-07-31T17:28:30.593Z,97194.71
2022-07-31T17:31:35.581Z,97194.89
2022-07-31T17:34:44.409Z,97200.08
2022-07-31T17:37:14.008Z,97199.68
2022-07-31T17:40:42.101Z,97202.88
2022-07-31T17:49:54.558Z,97203.91
2022-07-31T17:52:42.399Z,97205.63
2022-07-31T17:55:12.181Z,97205.22
2022-07-31T17:57:59.001Z,97213.13
2022-07-31T18:03:34.858Z,97217.17
2022-07-31T18:06:22.061Z,97218.02
2022-07-31T18:09:45.569Z,97220.15
2022-07-31T18:12:56.570Z,97220.75
2022-07-31T18:18:50.307Z,97228.46
2022-07-31T18:21:44.699Z,97234.46
2022-07-31T18:24:13.658Z,97235.68
2022-07-31T18:27:19.444Z,97236.70
2022-07-31T18:30:30.744Z,97238.89
2022-07-31T18:36:27.142Z,97247.66
2022-07-31T18:39:32.586Z,97247.99
2022-07-31T18:46:19.495Z,97256.56
2022-07-31T18:51:00.668Z,97260.19
2022-07-31T18:52:50.634Z,97261.16
2022-07-31T18:55:37.381Z,97263.27
2022-07-31T18:59:00.932Z,97266.41
2022-07-31T19:08:36.000Z,97274.88
2022-07-31T19:11:05.003Z,97280.04
2022-07-31T19:13:34.288Z,97279.77
2022-07-31T19:16:22.182Z,97286.47
2022-07-31T19:19:09.228Z,97289.85
2022-07-31T19:21:58.021Z,97295.62
2022-07-31T19:26:02.159Z,97295.64
2022-07-31T19:31:55.153Z,97302.21
2022-07-31T19:35:25.467Z,97307.98
2022-07-31T19:38:12.402Z,97320.80
2022-07-31T19:41:36.959Z,97327.58
2022-07-31T19:44:23.054Z,97332.16
2022-07-31T19:47:10.860Z,97331.71
2022-07-31T19:50:15.903Z,97335.59
2022-07-31T19:53:04.117Z,97341.46
2022-07-31T19:56:10.549Z,97341.84
2022-07-31T19:59:35.447Z,97341.46
2022-07-31T20:05:49.785Z,97347.61
2022-07-31T20:08:19.120Z,97350.79
2022-07-31T20:13:54.294Z,97353.42
2022-07-31T20:16:24.568Z,97353.83
2022-07-31T20:19:29.386Z,97349.67
2022-07-31T20:21:59.795Z,97356.52
2022-07-31T20:24:30.685Z,97356.91
2022-07-31T20:26:59.776Z,97362.08
2022-07-31T20:32:18.188Z,97370.30
2022-07-31T20:38:33.560Z,97372.27
2022-07-31T20:45:06.223Z,97374.59
2022-07-31T20:47:54.926Z,97373.02
2022-07-31T20:50:42.625Z,97374.55
2022-07-31T20:53:13.238Z,97372.39
2022-07-31T20:56:00.575Z,97374.27
2022-07-31T20:58:52.017Z,97369.92
2022-07-31T21:01:57.987Z,97372.50
2022-07-31T21:08:08.218Z,97375.42
2022-07-31T21:10:38.125Z,97375.13
2022-07-31T21:21:22.530Z,97369.30
2022-07-31T21:30:22.357Z,97379.27
2022-07-31T21:33:10.376Z,97383.11
2022-07-31T21:35:40.350Z,97385.20
2022-07-31T21:38:48.307Z,97384.38
2022-07-31T21:41:18.444Z,97386.10
2022-07-31T21:44:24.968Z,97388.11
2022-07-31T21:47:14.258Z,97390.70
2022-07-31T21:49:55.364Z,97390.09
2022-07-31T21:52:45.924Z,97389.23
2022-07-31T21:56:10.495Z,97391.51
2022-07-31T21:59:17.065Z,97390.33
2022-07-31T22:01:58.062Z,97391.77
2022-07-31T22:04:34.472Z,97394.67
2022-07-31T22:07:35.021Z,97393.27
2022-07-31T22:10:05.597Z,97395.13
2022-07-31T22:18:12.237Z,97390.33
2022-07-31T22:21:19.049Z,97392.41
2022-07-31T22:24:42.306Z,97390.19
2022-07-31T22:27:31.540Z,97386.57
2022-07-31T22:40:14.377Z,97392.81
2022-07-31T22:42:56.528Z,97391.69
2022-07-31T22:45:28.196Z,97389.82
2022-07-31T22:47:58.464Z,97396.89
2022-07-31T22:50:46.585Z,97396.81
2022-07-31T22:56:56.783Z,97393.59
2022-07-31T23:00:21.250Z,97393.23
2022-07-31T23:03:08.828Z,97393.34
2022-07-31T23:06:03.634Z,97397.73
2022-07-31T23:11:33.428Z,97397.05
2022-07-31T23:14:20.843Z,97392.25
2022-07-31T23:17:08.193Z,97394.02
2022-07-31T23:23:01.164Z,97392.64
2022-07-31T23:32:36.675Z,97397.40
2022-07-31T23:35:07.246Z,97402.08
2022-07-31T23:41:54.897Z,97396.16
2022-07-31T23:44:42.684Z,97391.61
2022-07-31T23:51:54.161Z,97392.64
2022-07-31T23:54:22.927Z,97392.60
2022-07-31T23:57:28.496Z,97393.60
